Time;durP1;ratioP1;P1;durP2;ratioP2;P2;SDS_P1;SDS_P2;PMS_P1;PMS_P2;Temp;Humidity;BMP_temperature;BMP_pressure;BME280_temperature;BME280_humidity;BME280_pressure;Samples;Min_cycle;Max_cycle;Signal;HPM_P1;HPM_P2
2022/02/11 00:01:58;;;;;;;2.80;1.38;;;;;;;10.10;51.73;101830.34;5005362;28;20145;-80
2022/02/11 00:07:10;;;;;;;2.67;1.63;;;;;;;10.08;51.31;101826.81;5010011;28;20092;-80
2022/02/11 00:09:38;;;;;;;3.20;1.60;;;;;;;10.09;51.22;101818.63;5008367;28;20069;-80
2022/02/11 00:12:07;;;;;;;3.40;1.75;;;;;;;10.09;50.98;101823.16;5010790;28;20501;-80
2022/02/11 00:14:42;;;;;;;3.55;1.73;;;;;;;10.06;51.20;101821.47;5000604;28;20058;-80
2022/02/11 00:17:10;;;;;;;3.10;1.75;;;;;;;10.05;51.18;101825.13;4986114;28;20062;-80
2022/02/11 00:19:39;;;;;;;4.47;2.28;;;;;;;10.03;51.42;101821.63;4983305;28;20055;-80
2022/02/11 00:22:06;;;;;;;3.67;2.10;;;;;;;10.04;51.49;101819.81;4982725;28;20391;-80
2022/02/11 00:24:35;;;;;;;3.85;2.10;;;;;;;10.06;51.75;101828.72;4991452;28;20475;-80
2022/02/11 00:35:27;;;;;;;4.03;2.03;;;;;;;9.99;51.32;101825.44;5000829;28;20084;-80
2022/02/11 00:37:54;;;;;;;3.45;1.90;;;;;;;10.00;51.39;101834.47;5009255;28;20386;-80
2022/02/11 01:02:24;;;;;;;4.55;2.17;;;;;;;9.90;51.14;101829.47;4987930;28;20122;-80
2022/02/11 01:04:51;;;;;;;5.78;2.20;;;;;;;9.89;50.91;101838.56;4992951;28;20140;-80
2022/02/11 01:07:18;;;;;;;4.65;2.10;;;;;;;9.88;51.01;101836.81;5005692;28;20174;-81
2022/02/11 01:09:45;;;;;;;4.15;2.38;;;;;;;9.87;51.23;101839.63;5006017;28;20075;-80
2022/02/11 01:12:12;;;;;;;3.75;2.30;;;;;;;9.84;50.83;101840.63;5010398;28;20132;-80
2022/02/11 01:14:52;;;;;;;4.85;2.08;;;;;;;9.84;51.25;101834.31;5011431;28;20069;-81
2022/02/11 01:17:30;;;;;;;4.88;2.28;;;;;;;9.82;51.33;101838.94;5009156;28;20082;-81
2022/02/11 01:20:16;;;;;;;3.70;2.30;;;;;;;9.80;51.20;101830.03;5013899;28;20121;-81
2022/02/11 01:37:53;;;;;;;4.30;2.83;;;;;;;9.79;51.48;101826.44;4992946;28;20100;-81
2022/02/11 01:41:04;;;;;;;5.28;2.72;;;;;;;9.78;51.56;101816.53;4988503;28;20058;-81
2022/02/11 02:02:01;;;;;;;4.72;3.00;;;;;;;9.76;50.94;101826.56;5006562;28;20262;-81
2022/02/11 02:57:42;;;;;;;6.65;3.60;;;;;;;9.37;51.02;101823.03;5008950;28;20081;-81
2022/02/11 03:17:11;;;;;;;8.25;4.43;;;;;;;9.19;50.48;101824.75;5003032;28;20064;-82
2022/02/11 03:55:00;;;;;;;8.77;4.88;;;;;;;8.91;51.21;101837.75;5011858;28;20133;-81
2022/02/11 04:22:20;;;;;;;9.63;4.55;;;;;;;8.87;51.45;101876.78;5006789;28;20128;-82
2022/02/11 04:55:05;;;;;;;7.25;4.50;;;;;;;8.95;51.88;101896.28;5007600;28;20571;-80
2022/02/11 05:00:19;;;;;;;7.53;3.50;;;;;;;8.98;51.33;101898.81;5011320;28;20128;-81
2022/02/11 05:02:47;;;;;;;8.15;4.00;;;;;;;8.97;51.66;101894.38;5006317;28;20046;-80
2022/02/11 05:05:15;;;;;;;6.65;3.63;;;;;;;8.98;51.73;101894.28;5024147;28;20501;-81
2022/02/11 05:07:42;;;;;;;9.02;4.05;;;;;;;8.99;51.65;101898.75;5021286;28;20107;-81
2022/02/11 05:10:11;;;;;;;7.35;3.78;;;;;;;9.00;51.69;101899.66;5008407;28;20658;-80
2022/02/11 05:12:37;;;;;;;7.63;4.22;;;;;;;9.01;51.68;101901.41;5011470;28;20053;-80
2022/02/11 05:15:15;;;;;;;7.20;4.22;;;;;;;9.01;51.25;101902.28;5010218;28;20555;-81
2022/02/11 05:17:50;;;;;;;8.48;4.07;;;;;;;9.00;51.71;101911.38;5012210;28;20093;-80
2022/02/11 05:20:18;;;;;;;8.77;4.20;;;;;;;9.01;51.51;101906.84;5009886;28;20119;-80
2022/02/11 05:22:45;;;;;;;9.02;3.78;;;;;;;9.00;51.86;101913.19;5011219;28;20382;-80
2022/02/11 05:25:11;;;;;;;9.77;5.05;;;;;;;9.01;51.69;101905.00;5006029;28;20057;-80
2022/02/11 05:27:38;;;;;;;8.63;4.30;;;;;;;9.00;51.64;101910.47;5011396;28;20153;-80
2022/02/11 05:30:07;;;;;;;8.27;3.85;;;;;;;8.99;51.80;101924.97;5004501;28;20319;-80
2022/02/11 05:32:34;;;;;;;7.90;3.90;;;;;;;8.98;51.74;101923.19;5015379;28;20046;-80
2022/02/11 05:35:00;;;;;;;7.15;3.75;;;;;;;8.98;51.99;101931.34;5009867;28;20057;-81
2022/02/11 05:37:27;;;;;;;9.38;3.97;;;;;;;8.99;51.97;101933.09;5012188;28;20496;-81
2022/02/11 05:39:54;;;;;;;6.63;3.60;;;;;;;9.01;51.93;101931.22;5010672;28;20446;-80
2022/02/11 05:42:20;;;;;;;8.38;3.60;;;;;;;9.00;51.84;101937.56;5006175;28;20482;-80
2022/02/11 05:44:47;;;;;;;7.15;4.00;;;;;;;9.02;52.08;101938.41;5009068;28;20061;-80
2022/02/11 05:47:13;;;;;;;8.05;3.78;;;;;;;9.02;51.82;101943.81;5010498;28;20073;-81
2022/02/11 05:49:40;;;;;;;7.18;3.80;;;;;;;9.04;52.10;101947.34;5010902;28;20057;-80
2022/02/11 05:52:07;;;;;;;8.93;4.38;;;;;;;9.04;51.93;101956.34;5010471;28;20046;-80
2022/02/11 05:54:34;;;;;;;7.95;3.78;;;;;;;9.04;51.96;101953.66;5008674;28;20058;-80
2022/02/11 05:57:00;;;;;;;8.48;3.78;;;;;;;9.05;52.02;101966.25;5010362;28;20045;-79
2022/02/11 05:59:27;;;;;;;9.68;3.40;;;;;;;9.07;51.92;101967.03;5007344;28;20136;-79
2022/02/11 06:01:54;;;;;;;9.23;3.83;;;;;;;9.07;51.98;101977.88;5013415;28;20046;-80
2022/02/11 06:04:24;;;;;;;7.07;3.55;;;;;;;9.07;52.01;101967.03;5004086;28;20049;-79
2022/02/11 06:06:56;;;;;;;8.43;3.72;;;;;;;9.10;52.20;101958.78;5005573;28;20413;-77
2022/02/11 06:09:23;;;;;;;7.60;3.40;;;;;;;9.08;52.18;101984.16;5009572;28;20149;-78
2022/02/11 06:11:50;;;;;;;8.18;3.20;;;;;;;9.08;52.14;101984.16;5011127;28;20133;-77
2022/02/11 06:14:18;;;;;;;8.10;3.20;;;;;;;9.10;52.36;101988.59;5013512;28;20071;-77
2022/02/11 06:16:44;;;;;;;7.28;3.00;;;;;;;9.09;52.06;101992.25;5008865;28;20050;-78
2022/02/11 06:19:11;;;;;;;7.22;3.10;;;;;;;9.12;51.97;101999.38;5007255;28;20444;-78
2022/02/11 06:21:37;;;;;;;7.93;3.30;;;;;;;9.16;52.15;102000.97;5006881;28;20461;-78
2022/02/11 06:24:05;;;;;;;6.68;3.10;;;;;;;9.16;52.33;101999.16;5006229;28;20494;-78
2022/02/11 06:26:31;;;;;;;7.28;3.55;;;;;;;9.16;52.22;101998.28;5009001;28;20073;-77
2022/02/11 06:28:58;;;;;;;6.88;3.20;;;;;;;9.18;52.02;102003.63;5010368;28;20144;-78
2022/02/11 06:31:26;;;;;;;8.07;3.28;;;;;;;9.18;52.17;102009.94;5009587;28;20066;-80
2022/02/11 06:33:53;;;;;;;6.90;3.17;;;;;;;9.18;52.28;102007.22;5011455;28;20061;-78
2022/02/11 06:36:20;;;;;;;8.27;3.15;;;;;;;9.20;52.26;102010.75;5006404;28;20137;-79
2022/02/11 06:38:47;;;;;;;6.75;2.90;;;;;;;9.21;52.03;102019.78;5008745;28;20116;-78
2022/02/11 06:41:14;;;;;;;5.45;2.90;;;;;;;9.24;52.21;102033.16;5009938;28;20141;-78
2022/02/11 06:43:40;;;;;;;6.82;3.05;;;;;;;9.23;52.43;102029.56;5019228;28;20099;-78
2022/02/11 06:46:09;;;;;;;5.88;2.60;;;;;;;9.23;52.62;102045.84;5008566;28;20456;-78
2022/02/11 06:48:36;;;;;;;7.93;3.03;;;;;;;9.27;52.22;102046.59;5010867;28;20108;-78
2022/02/11 06:51:02;;;;;;;5.88;2.70;;;;;;;9.24;52.19;102065.69;5005922;28;20077;-78
2022/02/11 06:53:29;;;;;;;6.78;2.70;;;;;;;9.27;52.37;102057.44;5002934;28;20069;-78
2022/02/11 06:55:55;;;;;;;6.30;2.35;;;;;;;9.26;52.34;102055.66;5003677;28;20104;-78
2022/02/11 06:58:22;;;;;;;7.15;2.65;;;;;;;9.26;52.08;102063.81;5009414;28;20133;-78
2022/02/11 07:00:50;;;;;;;7.03;2.40;;;;;;;9.28;52.16;102072.75;5010365;28;20467;-79
2022/02/11 07:03:17;;;;;;;7.88;2.88;;;;;;;9.27;52.23;102069.16;5016477;28;20041;-79
2022/02/11 07:05:45;;;;;;;7.25;2.95;;;;;;;9.27;52.48;102088.13;5008834;28;20108;-79
2022/02/11 07:08:12;;;;;;;5.97;2.22;;;;;;;9.29;52.46;102088.97;5002208;28;20081;-79
2022/02/11 07:10:39;;;;;;;10.45;2.63;;;;;;;9.27;52.58;102101.69;5007788;28;20160;-78
2022/02/11 07:13:13;;;;;;;7.18;2.70;;;;;;;9.29;52.69;102098.91;5008052;28;20077;-79
2022/02/11 07:15:48;;;;;;;6.40;2.28;;;;;;;9.28;52.52;102125.13;4967578;28;20129;-79
2022/02/11 07:18:16;;;;;;;6.78;3.17;;;;;;;9.30;52.73;102123.25;4968425;28;20133;-78
2022/02/11 07:20:42;;;;;;;9.73;3.17;;;;;;;9.31;52.58;102124.97;4967345;28;20596;-79
2022/02/11 07:23:09;;;;;;;8.25;3.67;;;;;;;9.32;52.71;102128.56;4968965;28;20577;-79
2022/02/11 07:25:35;;;;;;;9.25;4.18;;;;;;;9.34;52.41;102130.28;4967221;28;20565;-78
2022/02/11 07:28:02;;;;;;;8.88;3.70;;;;;;;9.35;52.74;102147.44;4951253;28;20055;-79
2022/02/11 07:30:29;;;;;;;8.40;3.78;;;;;;;9.35;52.60;102142.00;4978054;28;20146;-79
2022/02/11 07:32:56;;;;;;;8.70;3.70;;;;;;;9.36;52.76;102147.38;4971239;28;20118;-78
2022/02/11 07:35:24;;;;;;;8.63;3.42;;;;;;;9.38;52.61;102156.34;4985873;28;20116;-80
2022/02/11 07:37:51;;;;;;;6.40;3.10;;;;;;;9.38;52.32;102156.34;4987590;28;20058;-78
2022/02/11 07:40:18;;;;;;;6.22;2.63;;;;;;;9.39;52.39;102165.31;4986406;28;20113;-78
2022/02/11 07:42:47;;;;;;;7.97;2.75;;;;;;;9.41;52.63;102172.44;4994294;28;20058;-78
2022/02/11 07:45:15;;;;;;;7.18;2.63;;;;;;;9.43;52.57;102184.13;4984870;28;20150;-78
2022/02/11 07:47:42;;;;;;;6.25;2.40;;;;;;;9.43;52.53;102194.09;4987407;28;20077;-78
2022/02/11 07:50:09;;;;;;;5.85;1.85;;;;;;;9.44;52.46;102194.03;4989939;28;20118;-78
2022/02/11 07:52:35;;;;;;;6.57;2.00;;;;;;;9.45;52.54;102190.38;4990000;28;20129;-78
2022/02/11 07:55:05;;;;;;;7.05;2.00;;;;;;;9.46;52.47;102193.97;4993172;28;20116;-78
2022/02/11 07:57:32;;;;;;;6.03;1.88;;;;;;;9.47;52.22;102207.44;4990126;28;20109;-78
2022/02/11 08:00:04;;;;;;;4.45;1.80;;;;;;;9.48;51.94;102217.34;4987462;28;20093;-78
2022/02/11 08:02:37;;;;;;;5.22;1.63;;;;;;;9.51;52.50;102221.75;4985083;28;20293;-78
2022/02/11 08:05:04;;;;;;;3.95;1.38;;;;;;;9.48;52.06;102236.31;4996116;28;20062;-78
2022/02/11 08:07:31;;;;;;;7.05;1.75;;;;;;;9.50;52.21;102236.25;5011625;28;20046;-79
2022/02/11 08:09:57;;;;;;;4.18;1.60;;;;;;;9.52;52.10;102243.41;5002069;28;20077;-79
2022/02/11 08:12:24;;;;;;;4.38;1.40;;;;;;;9.52;52.06;102246.09;4989954;28;20613;-79
2022/02/11 08:14:50;;;;;;;6.05;1.60;;;;;;;9.51;51.99;102244.34;4986771;28;20955;-79
2022/02/11 08:17:21;;;;;;;6.63;1.92;;;;;;;9.52;52.11;102251.53;4988804;28;20050;-79
2022/02/11 08:19:48;;;;;;;5.93;1.42;;;;;;;9.54;52.18;102256.91;4983731;28;20681;-80
2022/02/11 08:22:16;;;;;;;6.90;1.35;;;;;;;9.54;51.98;102262.31;4988636;28;20093;-79
2022/02/11 08:24:43;;;;;;;6.50;1.67;;;;;;;9.55;52.00;102273.06;4991042;28;20078;-80
2022/02/11 08:27:13;;;;;;;6.30;1.55;;;;;;;9.57;52.39;102277.56;5010574;28;20046;-81
2022/02/11 08:29:41;;;;;;;7.53;1.90;;;;;;;9.57;52.19;102278.44;5007935;28;20061;-80
2022/02/11 08:32:09;;;;;;;6.50;1.60;;;;;;;9.59;51.90;102297.38;5008444;28;20049;-79
2022/02/11 08:34:35;;;;;;;7.50;1.65;;;;;;;9.60;52.35;102291.88;4996490;28;20137;-80
2022/02/11 08:37:02;;;;;;;5.32;1.92;;;;;;;9.62;52.33;102291.84;4986806;28;20050;-80
2022/02/11 08:39:29;;;;;;;3.67;1.70;;;;;;;9.64;52.05;102300.75;4989599;28;20081;-81
2022/02/11 08:41:57;;;;;;;4.88;1.48;;;;;;;9.65;52.04;102318.81;5014923;28;20046;-81
2022/02/11 08:44:44;;;;;;;6.93;1.90;;;;;;;9.65;52.30;102316.09;5007482;28;20093;-80
2022/02/11 08:47:11;;;;;;;3.33;1.23;;;;;;;9.66;52.00;102329.59;4894050;29;20146;-80
2022/02/11 08:49:41;;;;;;;6.78;1.42;;;;;;;9.69;51.94;102332.19;4906696;29;20163;-80
2022/02/11 08:52:08;;;;;;;6.05;1.50;;;;;;;9.71;52.18;102335.75;4907973;29;20076;-80
2022/02/11 08:54:35;;;;;;;7.78;1.60;;;;;;;9.74;51.84;102357.28;4909325;29;20060;-80
2022/02/11 08:57:02;;;;;;;5.10;1.40;;;;;;;9.75;51.76;102350.94;4917004;29;20119;-80
2022/02/11 08:59:29;;;;;;;5.90;1.60;;;;;;;9.78;51.77;102360.78;4921739;29;20086;-78
2022/02/11 09:01:55;;;;;;;8.43;1.70;;;;;;;9.79;51.81;102349.88;4900319;29;20091;-81
2022/02/11 09:04:22;;;;;;;6.78;2.00;;;;;;;9.81;51.98;102371.50;4910201;29;20048;-81
2022/02/11 09:06:49;;;;;;;6.60;1.50;;;;;;;9.82;52.07;102360.59;4884034;29;20044;-81
2022/02/11 09:09:16;;;;;;;5.85;1.70;;;;;;;9.84;51.62;102374.09;4875053;29;20074;-80
2022/02/11 09:11:44;;;;;;;6.60;1.63;;;;;;;9.86;51.61;102383.06;4893544;29;20140;-82
2022/02/11 09:14:10;;;;;;;5.45;1.60;;;;;;;9.85;51.59;102393.03;4885213;29;20172;-81
2022/02/11 09:16:37;;;;;;;5.85;1.60;;;;;;;9.88;51.44;102402.88;4909227;29;20106;-82
2022/02/11 09:19:06;;;;;;;7.43;1.88;;;;;;;9.88;51.50;102409.16;4915129;29;20085;-81
2022/02/11 09:21:33;;;;;;;6.18;2.00;;;;;;;9.89;51.43;102404.63;4909880;29;20151;-81
2022/02/11 09:23:59;;;;;;;6.85;1.50;;;;;;;9.90;51.52;102409.13;4944401;28;20773;-81
2022/02/11 09:26:26;;;;;;;7.82;1.83;;;;;;;9.93;51.65;102411.72;5006323;28;20456;-80
2022/02/11 09:28:52;;;;;;;6.60;1.95;;;;;;;9.93;51.28;102409.88;5001210;28;20133;-80
2022/02/11 09:31:26;;;;;;;7.47;1.90;;;;;;;9.95;51.32;102412.56;4989703;28;20149;-81
2022/02/11 09:33:55;;;;;;;4.78;1.35;;;;;;;9.97;51.12;102410.63;4989792;28;20053;-80
2022/02/11 09:36:22;;;;;;;5.32;1.90;;;;;;;9.99;51.08;102418.72;5006358;28;20141;-79
2022/02/11 09:38:49;;;;;;;8.68;1.95;;;;;;;10.01;51.19;102420.44;5006708;28;20125;-79
2022/02/11 09:41:16;;;;;;;7.47;1.83;;;;;;;10.04;51.19;102433.00;5011302;28;20068;-78
2022/02/11 09:43:45;;;;;;;7.55;1.98;;;;;;;10.06;50.99;102428.38;5010278;28;20041;-79
2022/02/11 09:46:13;;;;;;;7.97;1.42;;;;;;;10.08;51.24;102421.06;5006580;28;20057;-78
2022/02/11 09:48:39;;;;;;;6.03;1.60;;;;;;;10.10;51.15;102444.50;5010655;28;20417;-78
2022/02/11 09:51:05;;;;;;;6.80;1.70;;;;;;;10.12;50.68;102433.59;5014709;28;20056;-80
2022/02/11 09:53:31;;;;;;;5.10;1.58;;;;;;;10.16;50.76;102440.66;5011654;28;20606;-80
2022/02/11 09:55:58;;;;;;;11.45;2.17;;;;;;;10.18;50.86;102442.41;5009748;28;20081;-80
2022/02/11 09:58:25;;;;;;;5.18;1.52;;;;;;;10.22;50.93;102448.56;5029405;28;20046;-79
2022/02/11 10:00:52;;;;;;;5.93;1.70;;;;;;;10.25;50.75;102457.50;5013317;28;20053;-79
2022/02/11 10:03:30;;;;;;;6.53;1.70;;;;;;;10.32;49.90;102465.38;5010397;28;20548;-78
2022/02/11 10:05:59;;;;;;;7.03;1.50;;;;;;;10.30;50.61;102466.31;5009002;28;20053;-78
2022/02/11 10:08:28;;;;;;;4.25;1.67;;;;;;;10.36;50.54;102456.19;5011163;28;20085;-77
2022/02/11 10:10:56;;;;;;;8.70;1.98;;;;;;;10.40;50.40;102471.38;5011312;28;20137;-78
2022/02/11 10:13:32;;;;;;;8.43;1.80;;;;;;;10.47;49.91;102467.47;5022547;28;20050;-77
2022/02/11 10:16:06;;;;;;;5.78;2.00;;;;;;;10.45;50.26;102478.41;5010092;28;20065;-78
2022/02/11 10:18:33;;;;;;;8.57;2.00;;;;;;;10.48;50.36;102485.53;5018884;28;20417;-78
2022/02/11 10:21:01;;;;;;;7.45;1.63;;;;;;;10.51;49.83;102491.75;5014400;28;20049;-79
2022/02/11 10:23:33;;;;;;;7.88;1.67;;;;;;;10.55;49.64;102506.94;5018787;28;20053;-79
2022/02/11 10:26:08;;;;;;;6.45;1.92;;;;;;;10.58;49.46;102508.66;5007472;28;20081;-79
2022/02/11 10:28:43;;;;;;;7.05;1.70;;;;;;;10.60;48.61;102517.66;5013885;28;20081;-78
2022/02/11 10:31:31;;;;;;;5.82;1.70;;;;;;;10.60;48.52;102514.94;5003077;28;20116;-78
2022/02/11 10:34:18;;;;;;;8.95;2.10;;;;;;;10.59;49.42;102513.16;5011309;28;20405;-79
2022/02/11 10:36:50;;;;;;;6.85;1.48;;;;;;;10.59;48.99;102524.91;5003428;28;20477;-78
2022/02/11 10:39:25;;;;;;;10.80;2.13;;;;;;;10.62;48.43;102529.34;5006375;28;20054;-78
2022/02/11 10:41:58;;;;;;;8.43;1.75;;;;;;;10.62;49.10;102534.78;5010423;28;20125;-78
2022/02/11 10:44:30;;;;;;;8.50;1.77;;;;;;;10.67;48.44;102538.19;5011260;28;20058;-78
2022/02/11 10:47:04;;;;;;;7.57;1.73;;;;;;;10.66;48.73;102533.69;5009773;28;20053;-79
2022/02/11 10:49:35;;;;;;;5.90;1.77;;;;;;;10.71;48.50;102533.50;5005995;28;20489;-79
2022/02/11 10:52:16;;;;;;;7.00;1.80;;;;;;;10.74;47.91;102539.69;5009166;28;20109;-78
2022/02/11 10:54:49;;;;;;;6.30;1.95;;;;;;;10.75;48.31;102546.91;5007677;28;20076;-79
2022/02/11 10:57:21;;;;;;;7.57;1.52;;;;;;;10.76;47.99;102553.22;5021610;28;20459;-79
2022/02/11 10:59:50;;;;;;;5.72;1.30;;;;;;;10.80;48.04;102560.28;5003766;28;20077;-77
2022/02/11 11:02:19;;;;;;;5.47;2.00;;;;;;;10.82;47.99;102559.28;5010631;28;20050;-77
2022/02/11 11:04:47;;;;;;;5.75;1.60;;;;;;;10.85;48.31;102550.13;5008621;28;20046;-78
2022/02/11 11:07:25;;;;;;;6.45;1.63;;;;;;;10.91;47.49;102558.03;5003294;28;20092;-78
2022/02/11 11:10:13;;;;;;;5.70;1.63;;;;;;;10.93;47.79;102546.16;5007369;28;20053;-78
2022/02/11 11:12:43;;;;;;;7.80;1.70;;;;;;;10.99;47.94;102566.75;5013248;28;20050;-78
2022/02/11 11:15:11;;;;;;;6.57;1.40;;;;;;;11.02;47.81;102562.06;5006068;28;20042;-78
2022/02/11 11:17:39;;;;;;;6.72;1.67;;;;;;;11.06;47.60;102570.97;5009538;28;20402;-78
2022/02/11 11:20:06;;;;;;;6.72;1.80;;;;;;;11.13;47.86;102563.44;5001916;28;20128;-78
2022/02/11 11:22:40;;;;;;;6.30;1.33;;;;;;;11.22;48.00;102571.22;5010294;28;20175;-74
2022/02/11 11:25:08;;;;;;;4.07;1.20;;;;;;;11.23;48.62;102568.44;5007120;28;20545;-74
2022/02/11 11:27:45;;;;;;;6.57;1.83;;;;;;;11.38;47.90;102569.59;5010340;28;20054;-78
2022/02/11 11:30:23;;;;;;;6.72;1.90;;;;;;;11.51;47.00;102578.13;5004110;28;20053;-80
2022/02/11 11:33:06;;;;;;;6.95;1.60;;;;;;;11.60;46.83;102572.31;5010195;28;20473;-78
2022/02/11 11:35:35;;;;;;;5.95;2.30;;;;;;;11.67;47.34;102588.28;5008026;28;20136;-79
2022/02/11 11:38:15;;;;;;;5.45;1.48;;;;;;;11.76;46.29;102587.91;5005478;28;20049;-78
2022/02/11 11:41:03;;;;;;;5.00;1.45;;;;;;;11.82;45.87;102595.81;5003651;28;20149;-78
2022/02/11 11:43:31;;;;;;;4.32;1.42;;;;;;;11.85;46.28;102600.22;5015946;28;20046;-79
2022/02/11 11:46:16;;;;;;;5.75;1.65;;;;;;;11.91;45.25;102590.91;5007899;28;20057;-80
2022/02/11 11:48:53;;;;;;;6.15;1.60;;;;;;;11.94;44.33;102605.25;4998104;28;20057;-78
2022/02/11 11:51:21;;;;;;;5.28;1.70;;;;;;;11.95;45.03;102598.84;5006375;28;20493;-79
2022/02/11 11:53:47;;;;;;;6.25;1.52;;;;;;;11.97;44.96;102606.94;5007705;28;20132;-79
2022/02/11 11:56:37;;;;;;;6.10;1.42;;;;;;;12.00;44.23;102610.44;5007526;28;20136;-79
2022/02/11 11:59:24;;;;;;;7.13;1.67;;;;;;;12.03;43.48;102604.84;5011170;28;20050;-78
2022/02/11 12:01:54;;;;;;;6.50;1.60;;;;;;;12.03;44.56;102618.44;5005718;28;20382;-79
2022/02/11 12:04:26;;;;;;;6.18;1.50;;;;;;;12.08;44.16;102612.81;5005918;28;20096;-79
2022/02/11 12:07:23;;;;;;;5.93;1.60;;;;;;;12.06;43.68;102615.59;5016028;28;20496;-78
2022/02/11 12:09:55;;;;;;;7.25;1.65;;;;;;;12.11;44.29;102613.53;4990391;28;20062;-78
2022/02/11 12:12:24;;;;;;;4.60;1.60;;;;;;;12.15;44.02;102627.91;5003985;28;20093;-78
2022/02/11 12:15:14;;;;;;;6.07;1.60;;;;;;;12.19;44.06;102619.53;5005457;28;20077;-78
2022/02/11 12:17:41;;;;;;;3.53;1.27;;;;;;;12.23;44.11;102633.91;5012846;28;20049;-78
2022/02/11 12:20:08;;;;;;;7.85;1.65;;;;;;;12.28;43.88;102625.50;5013109;28;20488;-78
2022/02/11 12:22:35;;;;;;;8.55;1.80;;;;;;;12.33;43.11;102632.53;5014194;28;20529;-78
2022/02/11 12:27:49;;;;;;;5.97;1.52;;;;;;;12.35;42.71;102640.63;5007751;28;20137;-78
2022/02/11 12:30:22;;;;;;;6.07;1.50;;;;;;;12.36;41.97;102636.94;5014450;28;20058;-78
2022/02/11 12:32:56;;;;;;;;;;;;;;;12.13;43.63;102635.25;5008522;28;20062;-78
2022/02/11 12:35:27;;;;;;;5.40;1.33;;;;;;;12.30;42.03;102646.28;5008697;28;19921;-78
2022/02/11 12:37:56;;;;;;;5.05;1.30;;;;;;;12.31;42.42;102639.88;5008169;28;20081;-78
2022/02/11 12:40:29;;;;;;;4.95;1.35;;;;;;;12.30;41.17;102645.38;5008416;28;20057;-78
2022/02/11 12:42:59;;;;;;;4.88;1.17;;;;;;;12.25;42.37;102633.81;5007815;28;20489;-79
2022/02/11 12:45:29;;;;;;;5.97;1.40;;;;;;;12.25;42.43;102645.59;5005335;28;20057;-79
2022/02/11 12:47:56;;;;;;;5.45;1.40;;;;;;;12.24;42.15;102648.41;5010019;28;20108;-79
2022/02/11 12:50:32;;;;;;;3.72;1.17;;;;;;;12.25;41.24;102642.88;5007291;28;20088;-79
2022/02/11 12:53:02;;;;;;;4.25;1.70;;;;;;;12.24;41.89;102664.72;5013267;28;20049;-78
2022/02/11 12:55:32;;;;;;;5.72;1.30;;;;;;;12.23;41.69;102660.25;5007961;28;20092;-78
2022/02/11 12:58:01;;;;;;;5.53;1.65;;;;;;;12.23;41.16;102660.25;5007044;28;20697;-78
2022/02/11 13:00:31;;;;;;;4.63;1.50;;;;;;;12.19;40.79;102662.19;5017753;28;20072;-78
2022/02/11 13:03:01;;;;;;;5.15;1.33;;;;;;;12.16;40.91;102662.34;5009445;28;20470;-79
2022/02/11 13:05:36;;;;;;;6.43;1.20;;;;;;;12.11;40.62;102665.25;4993703;28;20490;-78
2022/02/11 13:08:06;;;;;;;4.22;1.27;;;;;;;12.07;40.69;102669.09;5017174;28;20095;-79
2022/02/11 13:10:36;;;;;;;3.47;1.35;;;;;;;12.07;40.67;102663.66;5021371;28;20053;-79
2022/02/11 13:13:06;;;;;;;5.80;1.58;;;;;;;12.09;40.49;102666.31;5012754;28;20053;-79
2022/02/11 13:15:35;;;;;;;5.10;1.30;;;;;;;12.09;41.13;102669.03;5007431;28;20160;-79
2022/02/11 13:18:11;;;;;;;3.35;1.13;;;;;;;12.09;39.96;102667.19;5017900;28;20081;-79
2022/02/11 13:20:50;;;;;;;4.35;2.05;;;;;;;12.13;40.26;102671.53;5015916;28;20049;-79
2022/02/11 13:23:24;;;;;;;3.40;1.30;;;;;;;12.15;39.44;102675.09;5004361;28;20041;-79
2022/02/11 13:25:54;;;;;;;4.25;1.33;;;;;;;12.16;40.98;102674.13;5009588;28;20537;-79
2022/02/11 13:28:24;;;;;;;3.08;1.30;;;;;;;12.21;40.43;102673.91;5018563;28;20099;-79
2022/02/11 13:31:02;;;;;;;3.88;1.10;;;;;;;12.27;39.83;102680.94;5017166;28;20115;-78
2022/02/11 13:33:31;;;;;;;3.70;1.00;;;;;;;12.30;40.58;102680.78;5020169;28;20061;-79
2022/02/11 13:36:03;;;;;;;4.32;1.30;;;;;;;12.33;40.00;102678.81;5010578;28;20143;-81
2022/02/11 13:38:39;;;;;;;3.45;1.35;;;;;;;12.37;39.50;102685.00;5011174;28;20050;-81
2022/02/11 13:41:11;;;;;;;3.65;1.10;;;;;;;12.39;39.07;102684.00;4989050;28;20054;-81
2022/02/11 13:44:01;;;;;;;3.70;1.02;;;;;;;12.41;39.39;102683.94;4991098;28;20065;-79
2022/02/11 13:46:54;;;;;;;4.88;1.10;;;;;;;12.41;38.19;102681.19;4988494;28;20054;-79
2022/02/11 13:49:22;;;;;;;6.65;1.20;;;;;;;12.41;40.02;102686.66;4988376;28;20137;-79
2022/02/11 13:55:00;;;;;;;3.50;1.25;;;;;;;12.41;38.38;102694.81;4986898;28;20103;-78
2022/02/11 13:57:27;;;;;;;3.90;1.10;;;;;;;12.38;39.76;102694.94;5009867;28;20076;-79
2022/02/11 13:59:54;;;;;;;5.10;1.10;;;;;;;12.37;39.52;102694.06;5002869;28;20046;-79
2022/02/11 14:02:27;;;;;;;7.88;1.35;;;;;;;12.35;39.63;102697.84;4991237;28;20054;-78
2022/02/11 14:05:02;;;;;;;3.35;1.00;;;;;;;12.40;38.29;102691.22;4995837;28;20065;-80
2022/02/11 14:07:29;;;;;;;2.83;1.00;;;;;;;12.36;39.34;102696.84;5010815;28;20049;-80
2022/02/11 14:09:56;;;;;;;5.00;1.20;;;;;;;12.34;39.27;102694.22;5006811;28;20073;-80
2022/02/11 14:12:23;;;;;;;3.85;1.02;;;;;;;12.33;39.46;102703.34;5013608;28;20119;-79
2022/02/11 14:14:54;;;;;;;3.97;1.83;;;;;;;12.34;38.50;102707.84;5010512;28;20053;-80
2022/02/11 14:17:21;;;;;;;4.95;1.27;;;;;;;12.31;39.28;102709.81;5009870;28;20293;-79
2022/02/11 14:19:47;;;;;;;3.45;1.10;;;;;;;12.29;39.08;102720.75;5009319;28;20050;-79
2022/02/11 14:22:14;;;;;;;3.47;1.20;;;;;;;12.28;38.95;102723.53;5010476;28;20076;-79
2022/02/11 14:24:41;;;;;;;4.95;1.30;;;;;;;12.26;38.83;102722.75;5006424;28;20091;-80
2022/02/11 14:27:07;;;;;;;4.35;1.80;;;;;;;12.23;39.34;102728.31;5023007;28;20080;-79
2022/02/11 14:29:34;;;;;;;3.50;1.20;;;;;;;12.22;39.01;102721.97;5010100;28;20503;-79
2022/02/11 14:32:01;;;;;;;3.85;1.10;;;;;;;12.19;39.06;102728.44;5013627;28;20129;-79
2022/02/11 14:34:28;;;;;;;3.92;1.40;;;;;;;12.18;38.68;102739.44;5009088;28;20119;-78
2022/02/11 14:36:55;;;;;;;3.03;1.13;;;;;;;12.15;39.06;102728.66;5007965;28;20433;-81
2022/02/11 14:39:22;;;;;;;3.90;1.17;;;;;;;12.12;38.22;102736.94;5006900;28;20445;-81
2022/02/11 14:41:51;;;;;;;7.43;1.67;;;;;;;12.09;38.14;102742.53;5000069;28;20531;-80
2022/02/11 14:44:21;;;;;;;5.57;1.30;;;;;;;12.07;38.42;102749.88;5009359;28;20147;-80
2022/02/11 14:46:49;;;;;;;2.83;1.10;;;;;;;12.01;38.45;102759.22;5011537;28;20057;-80
2022/02/11 14:49:17;;;;;;;4.35;1.35;;;;;;;11.98;38.50;102759.31;5017547;28;20095;-80
2022/02/11 14:51:50;;;;;;;4.13;1.17;;;;;;;11.96;37.45;102757.63;5015456;28;20409;-79
2022/02/11 14:54:17;;;;;;;2.85;1.17;;;;;;;11.91;38.66;102760.53;5019120;28;20049;-79
2022/02/11 14:56:45;;;;;;;3.70;1.20;;;;;;;11.91;38.48;102763.28;5007441;28;20062;-79
2022/02/11 14:59:11;;;;;;;4.30;1.48;;;;;;;11.90;38.27;102761.50;5007692;28;20058;-80
2022/02/11 15:01:42;;;;;;;4.30;1.02;;;;;;;11.90;37.68;102764.22;5011881;28;20111;-81
2022/02/11 15:04:10;;;;;;;2.20;1.00;;;;;;;11.88;38.31;102771.56;5020011;28;20112;-79
2022/02/11 15:06:37;;;;;;;4.35;1.00;;;;;;;11.88;38.33;102765.22;5021045;28;20108;-80
2022/02/11 15:09:05;;;;;;;3.03;1.20;;;;;;;11.87;38.35;102769.78;5009775;28;20269;-80
2022/02/11 15:11:33;;;;;;;4.05;1.15;;;;;;;11.88;38.36;102770.66;5022511;28;20583;-80
2022/02/11 15:14:00;;;;;;;3.75;1.20;;;;;;;11.85;38.42;102774.41;5010156;28;20447;-80
2022/02/11 15:16:27;;;;;;;4.03;1.20;;;;;;;11.84;38.20;102772.66;5007758;28;20674;-80
2022/02/11 15:18:53;;;;;;;4.55;1.10;;;;;;;11.85;38.22;102771.69;5015480;28;20135;-80
2022/02/11 15:21:21;;;;;;;4.45;1.20;;;;;;;11.86;38.08;102780.75;5009500;28;20085;-79
2022/02/11 15:23:48;;;;;;;4.63;1.20;;;;;;;11.86;37.90;102780.75;5008841;28;20049;-79
2022/02/11 15:26:16;;;;;;;2.85;0.90;;;;;;;11.86;38.13;102789.78;5021330;28;20085;-79
2022/02/11 15:28:45;;;;;;;5.50;1.02;;;;;;;11.86;38.26;102786.19;5010515;28;20054;-79
2022/02/11 15:31:18;;;;;;;2.63;0.93;;;;;;;11.85;38.50;102788.03;5016931;28;20058;-78
2022/02/11 15:33:45;;;;;;;3.45;0.95;;;;;;;11.86;38.42;102795.22;5009893;28;20080;-79
2022/02/11 15:36:15;;;;;;;5.57;1.40;;;;;;;11.88;37.77;102797.88;5006410;28;20062;-78
2022/02/11 15:38:42;;;;;;;4.60;1.40;;;;;;;11.86;38.26;102799.81;5015463;28;20049;-79